Llano Quemado, New Mexico
Current Conditions -  °F | °C
As of 12:35 AM on Saturday 29 Nov 2014 (Local Time) from KSKX Reporting Station
Clear Clear  
Wind Chill: 18°   Ceiling: Unl
Heat Index: 25°   Visibility: 10mi
Dew Point: 18°   Wind: 6mph
Humidity: 74%   Direction: 350°N
Pressure: 30.1"   Gusts: NA
Location:  36.2692°N, 105.543°W
Report Text: KSKX 290735Z AUTO 35005KT 10SM CLR M04/M08 A3010 RMK AO1
Loading
Personal Weather Stations






























Interactive Weather Map New forecast layout! Learn more

10-Day Weather Forecast

Advertisements
Track Severe Weather on mobile